createdAt,value
2022-08-05T03:21:03.895Z,95295.44
2022-08-05T03:23:35.591Z,95292.22
2022-08-05T03:26:32.061Z,95290.94
2022-08-05T03:28:59.798Z,95286.16
2022-08-05T03:31:56.244Z,95285.53
2022-08-05T03:34:20.686Z,95290.78
2022-08-05T03:36:55.597Z,95281.66
2022-08-05T03:39:27.320Z,95277.66
2022-08-05T03:41:57.996Z,95280.38
2022-08-05T03:44:28.936Z,95277.66
2022-08-05T03:46:58.892Z,95280.06
2022-08-05T03:49:31.149Z,95289.03
2022-08-05T03:52:38.697Z,95286.31
2022-08-05T03:56:01.658Z,95292.88
2022-08-05T03:58:21.041Z,95304.06
2022-08-05T04:01:01.347Z,95315.09
2022-08-05T04:03:38.121Z,95323.16
2022-08-05T04:06:09.312Z,95329.41
2022-08-05T04:08:41.009Z,95337.81
2022-08-05T04:11:11.029Z,95334.88
2022-08-05T04:13:50.840Z,95338.13
2022-08-05T04:16:24.156Z,95342.34
2022-08-05T04:18:57.690Z,95342.97
2022-08-05T04:22:08.318Z,95340.22
2022-08-05T04:24:19.274Z,95340.03
2022-08-05T04:26:52.250Z,95344.59
2022-08-05T04:29:22.223Z,95346.22
2022-08-05T04:31:52.600Z,95346.75
2022-08-05T04:34:32.638Z,95345.53
2022-08-05T04:37:05.625Z,95340.69
2022-08-05T04:39:36.612Z,95341.63
2022-08-05T04:42:07.996Z,95339.16
2022-08-05T04:44:38.792Z,95338.94
2022-08-05T04:47:20.200Z,95340.53
2022-08-05T04:50:01.574Z,95337.41
2022-08-05T04:52:36.250Z,95348.72
2022-08-05T04:55:14.905Z,95343.81
2022-08-05T04:57:47.481Z,95342.81
2022-08-05T05:00:18.820Z,95349.22
2022-08-05T05:02:53.308Z,95354.69
2022-08-05T05:05:28.335Z,95353.88
2022-08-05T05:08:03.029Z,95355.69
2022-08-05T05:10:41.963Z,95361.81
2022-08-05T05:13:25.572Z,95362.84
2022-08-05T05:16:00.508Z,95362.84
2022-08-05T05:18:35.369Z,95369.22
2022-08-05T05:21:05.699Z,95369.81
2022-08-05T05:24:02.550Z,95371.72
2022-08-05T05:26:28.335Z,95365.81
2022-08-05T05:29:14.168Z,95364.13
2022-08-05T05:31:46.509Z,95369.97
2022-08-05T05:34:21.173Z,95363.19
2022-08-05T05:36:53.677Z,95374.94
2022-08-05T05:39:23.309Z,95370.31
2022-08-05T05:41:54.694Z,95370.28
2022-08-05T05:44:36.419Z,95371.44
2022-08-05T05:47:13.108Z,95376.97
2022-08-05T05:49:52.642Z,95373.88
2022-08-05T05:52:30.061Z,95380.28
2022-08-05T05:55:13.097Z,95376.50
2022-08-05T05:57:52.348Z,95377.28
2022-08-05T06:00:27.740Z,95373.06
2022-08-05T06:03:03.001Z,95372.38
2022-08-05T06:05:32.756Z,95368.63
2022-08-05T06:08:03.941Z,95376.19
2022-08-05T06:10:36.654Z,95370.56
2022-08-05T06:13:08.488Z,95373.19
2022-08-05T06:16:30.596Z,95367.00
2022-08-05T06:18:30.960Z,95369.91
2022-08-05T06:21:01.472Z,95379.22
2022-08-05T06:23:32.179Z,95379.03
2022-08-05T06:26:24.065Z,95379.66
2022-08-05T06:28:56.044Z,95382.19
2022-08-05T06:31:30.491Z,95381.78
2022-08-05T06:34:07.406Z,95383.25
2022-08-05T06:36:57.513Z,95391.41
2022-08-05T06:39:28.287Z,95388.06
2022-08-05T06:42:01.281Z,95385.16
2022-08-05T06:44:35.415Z,95379.16
2022-08-05T06:47:05.157Z,95386.38
2022-08-05T06:50:01.932Z,95379.34
2022-08-05T06:52:37.828Z,95387.53
2022-08-05T06:55:10.679Z,95387.19
2022-08-05T06:57:57.534Z,95391.31
2022-08-05T07:00:31.401Z,95397.69
2022-08-05T07:03:00.965Z,95403.25
2022-08-05T07:05:37.127Z,95408.00
2022-08-05T07:08:11.022Z,95417.66
2022-08-05T07:10:53.393Z,95429.25
2022-08-05T07:13:59.164Z,95448.53
2022-08-05T07:17:59.722Z,95458.50
2022-08-05T07:22:30.168Z,95467.69
2022-08-05T07:25:22.695Z,95469.28
2022-08-05T07:27:57.993Z,95474.13
2022-08-05T07:30:32.598Z,95475.06
2022-08-05T07:33:09.240Z,95484.44
2022-08-05T07:36:03.870Z,95480.44
2022-08-05T07:38:33.246Z,95491.25
2022-08-05T07:42:07.063Z,95498.09
2022-08-05T07:43:57.561Z,95512.88
2022-08-05T07:46:29.397Z,95509.50
2022-08-05T07:49:06.155Z,95518.06
2022-08-05T07:51:48.663Z,95526.03
2022-08-05T07:54:30.398Z,95529.75
2022-08-05T07:57:22.753Z,95534.03
2022-08-05T07:59:54.009Z,95529.22
2022-08-05T08:02:31.382Z,95539.00
2022-08-05T08:05:18.818Z,95529.72
2022-08-05T08:08:00.215Z,95531.16
2022-08-05T08:10:30.509Z,95549.03
2022-08-05T08:13:00.734Z,95554.59
2022-08-05T08:16:34.606Z,95557.63
2022-08-05T08:18:21.798Z,95566.84
2022-08-05T08:21:03.135Z,95565.19
2022-08-05T08:24:02.637Z,95569.41
2022-08-05T08:26:26.850Z,95567.22
2022-08-05T08:29:09.727Z,95576.69
2022-08-05T08:31:52.111Z,95571.56
2022-08-05T08:34:30.557Z,95564.09
2022-08-05T08:37:05.170Z,95558.88
2022-08-05T08:39:37.324Z,95564.72
2022-08-05T08:42:32.610Z,95568.16
2022-08-05T08:45:22.763Z,95562.44
2022-08-05T08:48:12.528Z,95576.53
2022-08-05T08:51:07.577Z,95572.78
2022-08-05T08:53:44.998Z,95574.53
2022-08-05T08:56:15.358Z,95577.16
2022-08-05T08:58:48.574Z,95579.44
2022-08-05T09:01:20.030Z,95579.91
2022-08-05T09:03:57.402Z,95577.75
2022-08-05T09:06:31.157Z,95589.13
2022-08-05T09:09:03.109Z,95589.53
2022-08-05T09:11:51.090Z,95599.59
2022-08-05T09:14:57.715Z,95600.22
2022-08-05T09:17:16.084Z,95603.88
2022-08-05T09:20:08.438Z,95593.53
2022-08-05T09:23:19.176Z,95606.34
2022-08-05T09:26:02.418Z,95611.22
2022-08-05T09:28:35.015Z,95605.81
2022-08-05T09:32:38.593Z,95608.94
2022-08-05T09:34:01.649Z,95611.50
2022-08-05T09:36:45.712Z,95616.69
2022-08-05T09:39:27.765Z,95616.34
2022-08-05T09:42:23.152Z,95616.75
2022-08-05T09:44:56.200Z,95625.03
2022-08-05T09:47:36.383Z,95622.97
2022-08-05T09:50:37.417Z,95617.06
2022-08-05T09:53:09.150Z,95613.47
2022-08-05T09:55:58.411Z,95621.03
2022-08-05T09:58:33.510Z,95620.03
2022-08-05T10:01:15.295Z,95632.34
2022-08-05T10:04:03.137Z,95624.50
2022-08-05T10:06:35.075Z,95638.69
2022-08-05T10:09:25.023Z,95637.94
2022-08-05T10:12:30.497Z,95619.06
2022-08-05T10:15:22.515Z,95627.13
2022-08-05T10:18:12.364Z,95621.72
2022-08-05T10:20:48.314Z,95620.31
2022-08-05T10:23:55.706Z,95613.28
2022-08-05T10:26:14.494Z,95618.13
2022-08-05T10:28:46.602Z,95619.81
2022-08-05T10:32:49.379Z,95614.41
2022-08-05T10:34:10.825Z,95612.81
2022-08-05T10:36:42.717Z,95622.34
2022-08-05T10:39:24.840Z,95611.72
2022-08-05T10:42:18.474Z,95618.06
2022-08-05T10:44:55.929Z,95615.31
2022-08-05T10:47:36.766Z,95612.22
2022-08-05T10:50:20.867Z,95604.28
2022-08-05T10:53:03.257Z,95612.56
2022-08-05T10:56:03.826Z,95609.44
2022-08-05T10:58:23.317Z,95599.50
2022-08-05T11:01:13.632Z,95597.94
2022-08-05T11:04:12.016Z,95599.91
2022-08-05T11:07:09.085Z,95601.91
2022-08-05T11:09:47.049Z,95603.06
2022-08-05T11:12:54.502Z,95603.88
2022-08-05T11:15:59.074Z,95608.16
2022-08-05T11:18:32.246Z,95595.84
2022-08-05T11:21:11.183Z,95599.03
2022-08-05T11:24:04.620Z,95597.53
2022-08-05T11:26:43.463Z,95587.25
2022-08-05T11:29:37.929Z,95588.44
2022-08-05T11:32:28.279Z,95589.97
2022-08-05T11:34:58.777Z,95583.16
2022-08-05T11:38:28.477Z,95571.72
2022-08-05T11:41:34.293Z,95581.28
2022-08-05T11:44:05.797Z,95580.44
2022-08-05T11:46:58.312Z,95570.97
2022-08-05T11:49:33.933Z,95570.97
2022-08-05T11:52:08.831Z,95569.72
2022-08-05T11:54:43.426Z,95572.53
2022-08-05T11:57:24.841Z,95565.75
2022-08-05T11:59:56.305Z,95571.72
2022-08-05T12:02:33.472Z,95564.13
2022-08-05T12:05:17.927Z,95554.13
2022-08-05T12:08:07.348Z,95569.25
2022-08-05T12:10:45.612Z,95559.34
2022-08-05T12:13:28.161Z,95564.13
2022-08-05T12:16:15.070Z,95561.53
2022-08-05T12:18:49.465Z,95561.63
2022-08-05T12:21:30.450Z,95549.06
2022-08-05T12:24:07.188Z,95538.91
2022-08-05T12:26:43.981Z,95539.69
2022-08-05T12:29:22.546Z,95539.66
2022-08-05T12:31:56.139Z,95527.50
2022-08-05T12:34:31.073Z,95533.66
2022-08-05T12:37:10.573Z,95534.72
2022-08-05T12:39:41.722Z,95526.00
2022-08-05T12:42:20.432Z,95527.28
2022-08-05T12:44:50.756Z,95528.56
2022-08-05T12:47:31.783Z,95514.19
2022-08-05T12:50:06.433Z,95526.50
2022-08-05T12:52:38.782Z,95512.03
2022-08-05T12:55:23.594Z,95520.94
2022-08-05T12:58:48.440Z,95515.31
2022-08-05T13:02:03.366Z,95519.34
2022-08-05T13:03:43.281Z,95497.38
2022-08-05T13:06:19.820Z,95502.88
2022-08-05T13:08:51.440Z,95498.09
2022-08-05T13:11:47.018Z,95504.06
2022-08-05T13:14:36.562Z,95492.31
2022-08-05T13:17:12.179Z,95495.09
2022-08-05T13:19:51.867Z,95495.75
2022-08-05T13:22:28.379Z,95497.56
2022-08-05T13:25:05.159Z,95494.06
2022-08-05T13:27:39.579Z,95487.44
2022-08-05T13:30:34.733Z,95484.44
2022-08-05T13:33:05.569Z,95482.78
2022-08-05T13:35:47.395Z,95475.41
2022-08-05T13:38:31.057Z,95482.94
2022-08-05T13:41:06.470Z,95472.81
2022-08-05T13:43:45.197Z,95472.19
2022-08-05T13:46:50.583Z,95467.97
2022-08-05T13:49:17.280Z,95465.59
2022-08-05T13:51:47.161Z,95469.97
2022-08-05T13:54:21.072Z,95467.19
2022-08-05T13:56:55.423Z,95472.88
2022-08-05T13:59:27.396Z,95468.22
2022-08-05T14:02:02.904Z,95466.38
2022-08-05T14:04:54.623Z,95461.66
2022-08-05T14:07:59.920Z,95457.69
2022-08-05T14:10:28.109Z,95455.81
2022-08-05T14:12:59.733Z,95449.50
2022-08-05T14:16:04.343Z,95444.63
2022-08-05T14:18:23.222Z,95440.78
2022-08-05T14:20:54.951Z,95441.16
2022-08-05T14:23:27.439Z,95437.97
2022-08-05T14:26:02.540Z,95431.81
2022-08-05T14:28:34.522Z,95429.22
2022-08-05T14:31:04.221Z,95420.28
2022-08-05T14:34:00.361Z,95421.31
2022-08-05T14:36:30.502Z,95414.66
2022-08-05T14:39:00.210Z,95407.78
2022-08-05T14:41:32.466Z,95405.22
2022-08-05T14:44:14.480Z,95406.22
2022-08-05T14:46:50.243Z,95396.91
2022-08-05T14:49:21.173Z,95403.81
2022-08-05T14:51:51.683Z,95393.13
2022-08-05T14:54:29.757Z,95384.28
2022-08-05T14:57:05.348Z,95383.50
2022-08-05T14:59:43.152Z,95387.34
2022-08-05T15:02:24.208Z,95379.66
2022-08-05T15:04:55.285Z,95393.09
2022-08-05T15:08:12.422Z,95377.28
2022-08-05T15:10:14.289Z,95383.75
2022-08-05T15:13:00.306Z,95384.28
2022-08-05T15:15:54.087Z,95385.91
2022-08-05T15:18:21.526Z,95384.94
2022-08-05T15:20:52.673Z,95391.09
2022-08-05T15:23:22.588Z,95399.16
2022-08-05T15:25:56.645Z,95401.22
2022-08-05T15:28:28.126Z,95402.34
2022-08-05T15:30:58.400Z,95407.31
2022-08-05T15:34:05.014Z,95405.88
2022-08-05T15:36:24.468Z,95407.22
2022-08-05T15:41:01.028Z,95408.09
2022-08-05T15:41:56.014Z,95409.78
2022-08-05T15:44:26.411Z,95408.31
2022-08-05T15:46:59.262Z,95414.16
2022-08-05T15:49:55.173Z,95419.59
2022-08-05T15:52:29.140Z,95426.56
2022-08-05T15:55:16.298Z,95430.47
2022-08-05T15:57:49.010Z,95425.03
2022-08-05T16:00:26.510Z,95423.94
2022-08-05T16:03:09.229Z,95426.41
2022-08-05T16:05:39.163Z,95422.91
2022-08-05T16:08:16.111Z,95424.53
2022-08-05T16:10:45.777Z,95420.31
2022-08-05T16:13:19.391Z,95420.78
2022-08-05T16:15:53.722Z,95414.25
2022-08-05T16:18:28.093Z,95416.13
2022-08-05T16:20:59.870Z,95411.28
2022-08-05T16:23:53.744Z,95409.91
2022-08-05T16:26:26.431Z,95414.88
2022-08-05T16:28:57.085Z,95417.75
2022-08-05T16:31:27.786Z,95421.47
2022-08-05T16:34:17.888Z,95422.38
2022-08-05T16:36:47.888Z,95422.81
2022-08-05T16:39:20.606Z,95415.72
2022-08-05T16:42:14.697Z,95420.94
2022-08-05T16:44:40.097Z,95427.75
2022-08-05T16:47:28.805Z,95434.09
2022-08-05T16:50:03.364Z,95426.19
2022-08-05T16:52:33.664Z,95423.81
2022-08-05T16:55:05.522Z,95429.00
2022-08-05T16:57:53.703Z,95436.53
2022-08-05T17:00:26.010Z,95434.53
2022-08-05T17:03:09.312Z,95442.09
2022-08-05T17:05:50.273Z,95449.59
2022-08-05T17:08:36.001Z,95436.91
2022-08-05T17:11:16.884Z,95432.13
2022-08-05T17:13:46.934Z,95434.84
2022-08-05T17:16:33.027Z,95436.81
2022-08-05T17:19:03.590Z,95433.22
2022-08-05T17:21:39.792Z,95434.78
2022-08-05T17:24:28.158Z,95442.25
2022-08-05T17:27:01.598Z,95441.81
2022-08-05T17:29:33.098Z,95446.94
2022-08-05T17:32:17.297Z,95445.31
2022-08-05T17:34:58.137Z,95447.25
2022-08-05T17:37:39.648Z,95442.06
2022-08-05T17:40:15.915Z,95444.41
2022-08-05T17:42:50.859Z,95439.63
2022-08-05T17:45:24.846Z,95442.72
2022-08-05T17:47:56.466Z,95443.03
2022-08-05T17:50:30.392Z,95437.50
2022-08-05T17:53:02.915Z,95439.06
2022-08-05T17:55:37.712Z,95445.69
2022-08-05T17:58:13.359Z,95448.41
2022-08-05T18:00:50.769Z,95451.16
2022-08-05T18:03:58.575Z,95453.09
2022-08-05T18:06:15.386Z,95454.94
2022-08-05T18:08:52.626Z,95458.47
2022-08-05T18:11:32.947Z,95460.03
2022-08-05T18:14:07.161Z,95454.41
2022-08-05T18:17:06.881Z,95462.25
2022-08-05T18:19:56.345Z,95465.72
2022-08-05T18:22:45.918Z,95470.38
2022-08-05T18:25:17.249Z,95477.44
2022-08-05T18:27:52.523Z,95480.91
2022-08-05T18:30:23.517Z,95485.16
2022-08-05T18:33:00.474Z,95484.72
2022-08-05T18:35:49.407Z,95496.84
2022-08-05T18:38:26.033Z,95500.84
2022-08-05T18:41:56.590Z,95499.38
2022-08-05T18:43:49.130Z,95495.16
2022-08-05T18:46:20.755Z,95507.63
2022-08-05T18:48:52.785Z,95504.22
2022-08-05T18:52:04.400Z,95496.94
2022-08-05T18:54:31.965Z,95493.63
2022-08-05T18:57:02.702Z,95491.50
2022-08-05T18:59:44.036Z,95496.41
2022-08-05T19:02:26.694Z,95506.47
2022-08-05T19:05:02.532Z,95506.63
2022-08-05T19:07:52.374Z,95517.13
2022-08-05T19:10:28.001Z,95524.88
2022-08-05T19:12:58.610Z,95535.03
2022-08-05T19:15:58.902Z,95537.00
2022-08-05T19:18:22.619Z,95541.19
2022-08-05T19:20:53.646Z,95540.84
2022-08-05T19:24:06.524Z,95556.13
2022-08-05T19:26:13.846Z,95555.75
2022-08-05T19:28:44.426Z,95561.50
2022-08-05T19:31:18.046Z,95564.03
2022-08-05T19:33:56.462Z,95570.50
2022-08-05T19:36:29.514Z,95564.88
2022-08-05T19:39:00.901Z,95567.75
2022-08-05T19:42:05.690Z,95573.00
2022-08-05T19:44:21.938Z,95577.13
2022-08-05T19:46:52.218Z,95577.31
2022-08-05T19:49:23.525Z,95571.94
2022-08-05T19:52:05.328Z,95577.94
2022-08-05T19:54:38.584Z,95583.53
2022-08-05T19:57:09.878Z,95590.63
2022-08-05T19:59:56.195Z,95585.50
2022-08-05T20:02:33.478Z,95579.25
2022-08-05T20:05:09.597Z,95575.16
2022-08-05T20:07:48.173Z,95582.66
2022-08-05T20:10:22.206Z,95601.34
2022-08-05T20:12:55.032Z,95595.75
2022-08-05T20:15:51.568Z,95601.59
2022-08-05T20:18:32.781Z,95610.06
2022-08-05T20:21:07.401Z,95625.38
2022-08-05T20:23:51.211Z,95661.31
2022-08-05T20:26:25.689Z,95716.25
2022-08-05T20:28:57.881Z,95719.88
2022-08-05T20:31:42.832Z,95737.81
2022-08-05T20:34:20.444Z,95754.75
2022-08-05T20:36:51.306Z,95764.25
2022-08-05T20:39:20.990Z,95772.38
2022-08-05T20:41:51.059Z,95769.13
2022-08-05T20:44:30.714Z,95757.69
2022-08-05T20:47:03.264Z,95780.91
2022-08-05T20:49:39.282Z,95782.38
2022-08-05T20:52:12.232Z,95786.44
2022-08-05T20:54:42.905Z,95776.84
2022-08-05T20:57:43.530Z,95785.63
2022-08-05T21:00:40.809Z,95806.50
2022-08-05T21:03:08.323Z,95804.19
2022-08-05T21:05:53.752Z,95795.19
2022-08-05T21:08:41.413Z,95799.72
2022-08-05T21:11:12.653Z,95799.78
2022-08-05T21:13:47.766Z,95816.00
2022-08-05T21:16:27.614Z,95809.97
2022-08-05T21:19:01.675Z,95819.63
2022-08-05T21:21:39.848Z,95818.25
2022-08-05T21:24:22.277Z,95832.28
2022-08-05T21:26:58.250Z,95842.88
2022-08-05T21:29:31.850Z,95848.03
2022-08-05T21:32:03.954Z,95864.41
2022-08-05T21:34:35.618Z,95865.22
2022-08-05T21:37:07.965Z,95860.56
2022-08-05T21:39:40.441Z,95874.84
2022-08-05T21:42:40.873Z,95878.41
2022-08-05T21:45:01.276Z,95881.94
2022-08-05T21:47:54.994Z,95886.78
2022-08-05T21:50:22.173Z,95894.00
2022-08-05T21:52:51.881Z,95898.97
2022-08-05T21:55:43.156Z,95900.56
2022-08-05T21:58:13.320Z,95909.53
2022-08-05T22:00:50.965Z,95911.78
2022-08-05T22:03:48.452Z,95923.34
2022-08-05T22:06:11.518Z,95913.69
2022-08-05T22:08:42.618Z,95911.94
2022-08-05T22:11:15.714Z,95902.94
2022-08-05T22:14:33.883Z,95905.28
2022-08-05T22:16:51.043Z,95898.88
2022-08-05T22:20:00.467Z,95890.94
2022-08-05T22:22:12.049Z,95887.56
2022-08-05T22:24:59.391Z,95881.94
2022-08-05T22:28:10.496Z,95867.78
2022-08-05T22:30:35.434Z,95879.28
2022-08-05T22:33:15.643Z,95895.28
2022-08-05T22:35:48.641Z,95910.53
2022-08-05T22:38:19.797Z,95922.19
2022-08-05T22:40:55.208Z,95921.31
2022-08-05T22:43:37.015Z,95923.34
2022-08-05T22:46:13.615Z,95925.41
2022-08-05T22:48:52.966Z,95940.00
2022-08-05T22:52:03.120Z,95940.25
2022-08-05T22:54:12.299Z,95937.78
2022-08-05T22:56:41.764Z,95953.13
2022-08-05T22:59:46.500Z,95951.06
2022-08-05T23:02:05.644Z,95943.38
2022-08-05T23:04:37.634Z,95954.09
2022-08-05T23:07:07.565Z,95955.81
2022-08-05T23:09:58.310Z,95955.41
2022-08-05T23:12:28.583Z,95956.84
2022-08-05T23:15:00.192Z,95963.00
2022-08-05T23:17:59.608Z,95970.66
2022-08-05T23:20:24.422Z,95959.34
2022-08-05T23:22:56.349Z,95974.38
2022-08-05T23:25:51.905Z,95960.84
2022-08-05T23:28:17.260Z,95955.84
2022-08-05T23:30:53.735Z,95957.16
2022-08-05T23:34:03.110Z,95951.72
2022-08-05T23:36:14.457Z,95950.50
2022-08-05T23:38:44.745Z,95957.53
2022-08-05T23:41:14.355Z,95968.53
2022-08-05T23:44:04.292Z,95971.44
2022-08-05T23:46:34.693Z,95967.13
2022-08-05T23:49:15.700Z,95974.47
2022-08-05T23:52:03.233Z,95979.09
2022-08-05T23:54:38.667Z,95985.78
2022-08-05T23:57:10.250Z,95989.28
